Superseacat Three — IBGH — position and weather

sailwx.info

Track history (hours):
 
Tides and Currents Weather Stations Pressure Air Temp Water Temp Dewpoint Dewpoint Depression Visibility Wind Speed Wind Dir Waves Ship Positions

Superseacat Three

Operator: Sea Containers Irish Sea Operations

Last reported at 2017-May-23 09:38 UTC. Time now 2017-May-28 12:17 UTC.
Position N 37°03' E 015°23'.

Length 110 m; draft 6.2 m.

Type: Ship (hazmat cat B). MMSI: 247353300.

Date/timePositionNaut miles runAvg speedWind from/ knotsBaromVisibWave heightAir tempDewpointWater temp
2017-May-23 09:38N 37°03' E 015°23'212.7
2017-May-23 09:28N 37°01' E 015°25'3011.9
2017-May-23 06:56N 36°34' E 015°07'512.3
2017-May-23 06:30N 36°35' E 015°01'712.6
2017-May-23 05:57N 36°37' E 014°53'612.8
2017-May-23 05:30N 36°39' E 014°46'612.7
2017-May-23 05:01N 36°41' E 014°38'612.3
2017-May-23 04:30N 36°42' E 014°31'713.1
2017-May-23 04:00N 36°45' E 014°23'613.0
2017-May-23 03:31N 36°48' E 014°16'713.0
2017-May-23 03:01N 36°51' E 014°09'713.1
2017-May-23 02:30N 36°54' E 014°02'613.0
2017-May-23 02:01N 36°57' E 013°54'712.9
2017-May-23 01:30N 36°60' E 013°47'712.8
2017-May-23 00:58N 37°03' E 013°40'612.7
2017-May-23 00:31N 37°05' E 013°33'812.4
2017-May-22 23:52N 37°09' E 013°24'1212.4
2017-May-22 22:54N 37°14' E 013°10'512.6
2017-May-22 22:30N 37°16' E 013°05'612.7
2017-May-22 22:00N 37°18' E 012°57'612.5
2017-May-22 21:30N 37°22' E 012°51'612.5
2017-May-22 21:00N 37°25' E 012°44'1412.7
2017-May-22 19:56N 37°31' E 012°28'613.1
2017-May-22 19:27N 37°33' E 012°21'612.7
2017-May-22 18:59N 37°35' E 012°14'612.6
2017-May-22 18:29N 37°37' E 012°07'612.4
2017-May-22 18:00N 37°40' E 011°59'612.3
2017-May-22 17:31N 37°42' E 011°52'612.4
2017-May-22 17:00N 37°44' E 011°45'612.5
2017-May-22 16:30N 37°47' E 011°38'612.6
2017-May-22 15:59N 37°49' E 011°30'612.6
2017-May-22 15:30N 37°52' E 011°23'612.6
2017-May-22 15:00N 37°54' E 011°16'9412.6
2017-May-22 07:33N 38°28' E 009°24'112.4
2017-May-22 07:30N 38°28' E 009°23'612.5
2017-May-22 07:00N 38°31' E 009°16'612.7
2017-May-22 06:30N 38°33' E 009°08'1412.7
2017-May-22 05:22N 38°38' E 008°51'412.3
2017-May-22 05:00N 38°40' E 008°46'612.3
2017-May-22 04:29N 38°42' E 008°38'812.4
2017-May-22 03:52N 38°45' E 008°29'512.1
2017-May-22 03:29N 38°47' E 008°24'612.1
2017-May-22 03:00N 38°49' E 008°17'912.2
2017-May-22 02:18N 38°52' E 008°07'412.3
2017-May-22 02:00N 38°54' E 008°02'612.4
2017-May-22 01:30N 38°56' E 007°55'612.2
2017-May-22 00:59N 38°58' E 007°47'612.3
2017-May-22 00:28N 39°01' E 007°40'612.2
2017-May-22 00:00N 39°03' E 007°33'812.3
2017-May-21 23:20N 39°06' E 007°23'612.5
2017-May-21 22:49N 39°09' E 007°16'412.4
2017-May-21 22:29N 39°10' E 007°11'612.3
2017-May-21 22:00N 39°13' E 007°04'18712.4
2017-May-21 06:51N 40°24' E 003°18'412.2
2017-May-21 06:31N 40°26' E 003°13'612.2
2017-May-21 06:00N 40°28' E 003°06'612.0
2017-May-21 05:29N 40°31' E 002°58'612.0
2017-May-21 05:00N 40°33' E 002°51'612.1
2017-May-21 04:30N 40°35' E 002°44'612.2
2017-May-21 04:00N 40°37' E 002°36'612.4
2017-May-21 03:30N 40°40' E 002°29'612.3
2017-May-21 03:00N 40°42' E 002°21'612.3
2017-May-21 02:30N 40°45' E 002°14'612.3
2017-May-21 02:00N 40°47' E 002°06'612.1
2017-May-21 01:30N 40°49' E 001°59'611.8
2017-May-21 01:00N 40°52' E 001°52'611.7
2017-May-21 00:30N 40°55' E 001°45'611.8
2017-May-20 23:59N 40°58' E 001°38'611.9
2017-May-20 23:30N 41°00' E 001°31'611.9
2017-May-20 23:00N 41°02' E 001°23'8 0.2
2017-May-19 11:27N 41°04' E 001°14'2910.0
2017-May-19 08:34N 40°56' E 001°50'312.4
2017-May-19 08:19N 40°55' E 001°54'612.2
2017-May-19 07:51N 40°54' E 002°02'411.9
2017-May-19 07:30N 40°53' E 002°07'611.9
2017-May-19 07:00N 40°51' E 002°15'612.0
2017-May-19 06:30N 40°50' E 002°22'612.1
2017-May-19 06:00N 40°48' E 002°30'612.2
2017-May-19 05:30N 40°47' E 002°38'612.2
2017-May-19 04:59N 40°45' E 002°46'612.2
2017-May-19 04:30N 40°43' E 002°53'612.3
2017-May-19 04:00N 40°42' E 003°01'612.2
2017-May-19 03:30N 40°40' E 003°09'611.9
2017-May-19 03:00N 40°39' E 003°17'14812.0
2017-May-18 14:38N 39°15' E 005°55'212.5
2017-May-18 14:30N 39°14' E 005°57'1312.3
2017-May-18 13:28N 39°08' E 006°11'1712.5
2017-May-18 12:05N 39°03' E 006°33'212.4
2017-May-18 11:56N 39°03' E 006°35'812.5
2017-May-18 11:17N 39°01' E 006°45'512.5
2017-May-18 10:55N 38°59' E 006°51'812.2
2017-May-18 10:17N 38°57' E 007°01'812.1
2017-May-18 09:38N 38°55' E 007°10'211.9
2017-May-18 09:28N 38°54' E 007°13'611.9
2017-May-18 08:57N 38°53' E 007°20'1112.0
2017-May-18 08:04N 38°50' E 007°33'412.2
2017-May-18 07:47N 38°49' E 007°38'312.2
2017-May-18 07:30N 38°48' E 007°42'1112.0
2017-May-18 06:33N 38°45' E 007°56'111.9
2017-May-18 06:29N 38°45' E 007°57'612.0
2017-May-18 06:00N 38°43' E 008°04'612.1
2017-May-18 05:28N 38°41' E 008°12'612.1
2017-May-18 04:59N 38°40' E 008°19'812.1
2017-May-18 04:20N 38°38' E 008°29'512.2
2017-May-18 03:55N 38°36' E 008°35'512.3
2017-May-18 03:29N 38°35' E 008°42'612.3
2017-May-18 03:01N 38°33' E 008°49'1012.2
2017-May-18 02:14N 38°31' E 009°01'312.2
2017-May-18 02:00N 38°30' E 009°04'612.3
2017-May-18 01:30N 38°28' E 009°12'612.4
2017-May-18 01:00N 38°27' E 009°19'612.3
2017-May-18 00:30N 38°25' E 009°27'612.2
2017-May-17 23:59N 38°23' E 009°35'612.3
2017-May-17 23:30N 38°22' E 009°42'612.2
2017-May-17 23:00N 38°20' E 009°50'612.0
2017-May-17 22:29N 38°18' E 009°57'612.2
2017-May-17 22:01N 38°17' E 010°04'612.2
2017-May-17 21:30N 38°15' E 010°12'812.5
2017-May-17 20:54N 38°13' E 010°21'612.5
2017-May-17 20:28N 38°11' E 010°27'612.4
2017-May-17 19:58N 38°08' E 010°35'2312.0
2017-May-17 18:02N 37°59' E 011°01'011.5
2017-May-17 18:00N 37°58' E 011°02'1112.0
2017-May-17 17:03N 37°54' E 011°15'112.4
2017-May-17 17:00N 37°53' E 011°16'1312.0
2017-May-17 15:55N 37°48' E 011°31'711.8
2017-May-17 15:22N 37°45' E 011°38'512.5
2017-May-17 14:57N 37°43' E 011°44'1211.5
2017-May-17 13:55N 37°38' E 011°58'511.8
2017-May-17 13:30N 37°36' E 012°03'1511.4
2017-May-17 12:11N 37°30' E 012°20'211.2
2017-May-17 11:59N 37°28' E 012°23'711.1
2017-May-17 11:21N 37°25' E 012°30'6011.6
2017-May-17 06:10N 36°57' E 013°37'211.6
2017-May-17 06:00N 36°57' E 013°39'611.5
2017-May-17 05:30N 36°55' E 013°46'611.6
2017-May-17 05:00N 36°53' E 013°53'611.7
2017-May-17 04:27N 36°50' E 014°00'511.5
2017-May-17 04:00N 36°48' E 014°07'611.6
2017-May-17 03:30N 36°46' E 014°13'611.3
2017-May-17 03:00N 36°44' E 014°20'611.6
2017-May-17 02:30N 36°42' E 014°27'612.1
2017-May-17 02:00N 36°40' E 014°34'612.1
2017-May-17 01:30N 36°38' E 014°41'612.0
2017-May-17 00:58N 36°36' E 014°48'  
Track history (hours):
 
Tides and Currents Weather Stations Pressure Air Temp Water Temp Dewpoint Dewpoint Depression Visibility Wind Speed Wind Dir Waves Ship Positions

Superseacat Three

Operator: Sea Containers Irish Sea Operations

Last reported at 2017-May-23 09:38 UTC. Time now 2017-May-28 12:17 UTC.
Position N 37°03' E 015°23'.

Length 110 m; draft 6.2 m.

Type: Ship (hazmat cat B). MMSI: 247353300.

Date/timePositionNaut miles runAvg speedWind from/ knotsBaromVisibWave heightAir tempDewpointWater temp
2017-May-23 09:38N 37°03' E 015°23'212.7
2017-May-23 09:28N 37°01' E 015°25'3011.9
2017-May-23 06:56N 36°34' E 015°07'512.3
2017-May-23 06:30N 36°35' E 015°01'712.6
2017-May-23 05:57N 36°37' E 014°53'612.8
2017-May-23 05:30N 36°39' E 014°46'612.7
2017-May-23 05:01N 36°41' E 014°38'612.3
2017-May-23 04:30N 36°42' E 014°31'713.1
2017-May-23 04:00N 36°45' E 014°23'613.0
2017-May-23 03:31N 36°48' E 014°16'713.0
2017-May-23 03:01N 36°51' E 014°09'713.1
2017-May-23 02:30N 36°54' E 014°02'613.0
2017-May-23 02:01N 36°57' E 013°54'712.9
2017-May-23 01:30N 36°60' E 013°47'712.8
2017-May-23 00:58N 37°03' E 013°40'612.7
2017-May-23 00:31N 37°05' E 013°33'812.4
2017-May-22 23:52N 37°09' E 013°24'1212.4
2017-May-22 22:54N 37°14' E 013°10'512.6
2017-May-22 22:30N 37°16' E 013°05'612.7
2017-May-22 22:00N 37°18' E 012°57'612.5
2017-May-22 21:30N 37°22' E 012°51'612.5
2017-May-22 21:00N 37°25' E 012°44'1412.7
2017-May-22 19:56N 37°31' E 012°28'613.1
2017-May-22 19:27N 37°33' E 012°21'612.7
2017-May-22 18:59N 37°35' E 012°14'612.6
2017-May-22 18:29N 37°37' E 012°07'612.4
2017-May-22 18:00N 37°40' E 011°59'612.3
2017-May-22 17:31N 37°42' E 011°52'612.4
2017-May-22 17:00N 37°44' E 011°45'612.5
2017-May-22 16:30N 37°47' E 011°38'612.6
2017-May-22 15:59N 37°49' E 011°30'612.6
2017-May-22 15:30N 37°52' E 011°23'612.6
2017-May-22 15:00N 37°54' E 011°16'9412.6
2017-May-22 07:33N 38°28' E 009°24'112.4
2017-May-22 07:30N 38°28' E 009°23'612.5
2017-May-22 07:00N 38°31' E 009°16'612.7
2017-May-22 06:30N 38°33' E 009°08'1412.7
2017-May-22 05:22N 38°38' E 008°51'412.3
2017-May-22 05:00N 38°40' E 008°46'612.3
2017-May-22 04:29N 38°42' E 008°38'812.4
2017-May-22 03:52N 38°45' E 008°29'512.1
2017-May-22 03:29N 38°47' E 008°24'612.1
2017-May-22 03:00N 38°49' E 008°17'912.2
2017-May-22 02:18N 38°52' E 008°07'412.3
2017-May-22 02:00N 38°54' E 008°02'612.4
2017-May-22 01:30N 38°56' E 007°55'612.2
2017-May-22 00:59N 38°58' E 007°47'612.3
2017-May-22 00:28N 39°01' E 007°40'612.2
2017-May-22 00:00N 39°03' E 007°33'812.3
2017-May-21 23:20N 39°06' E 007°23'612.5
2017-May-21 22:49N 39°09' E 007°16'412.4
2017-May-21 22:29N 39°10' E 007°11'612.3
2017-May-21 22:00N 39°13' E 007°04'18712.4
2017-May-21 06:51N 40°24' E 003°18'412.2
2017-May-21 06:31N 40°26' E 003°13'612.2
2017-May-21 06:00N 40°28' E 003°06'612.0
2017-May-21 05:29N 40°31' E 002°58'612.0
2017-May-21 05:00N 40°33' E 002°51'612.1
2017-May-21 04:30N 40°35' E 002°44'612.2
2017-May-21 04:00N 40°37' E 002°36'612.4
2017-May-21 03:30N 40°40' E 002°29'612.3
2017-May-21 03:00N 40°42' E 002°21'612.3
2017-May-21 02:30N 40°45' E 002°14'612.3
2017-May-21 02:00N 40°47' E 002°06'612.1
2017-May-21 01:30N 40°49' E 001°59'611.8
2017-May-21 01:00N 40°52' E 001°52'611.7
2017-May-21 00:30N 40°55' E 001°45'611.8
2017-May-20 23:59N 40°58' E 001°38'611.9
2017-May-20 23:30N 41°00' E 001°31'611.9
2017-May-20 23:00N 41°02' E 001°23'8 0.2
2017-May-19 11:27N 41°04' E 001°14'2910.0
2017-May-19 08:34N 40°56' E 001°50'312.4
2017-May-19 08:19N 40°55' E 001°54'612.2
2017-May-19 07:51N 40°54' E 002°02'411.9
2017-May-19 07:30N 40°53' E 002°07'611.9
2017-May-19 07:00N 40°51' E 002°15'612.0
2017-May-19 06:30N 40°50' E 002°22'612.1
2017-May-19 06:00N 40°48' E 002°30'612.2
2017-May-19 05:30N 40°47' E 002°38'612.2
2017-May-19 04:59N 40°45' E 002°46'612.2
2017-May-19 04:30N 40°43' E 002°53'612.3
2017-May-19 04:00N 40°42' E 003°01'612.2
2017-May-19 03:30N 40°40' E 003°09'611.9
2017-May-19 03:00N 40°39' E 003°17'14812.0
2017-May-18 14:38N 39°15' E 005°55'212.5
2017-May-18 14:30N 39°14' E 005°57'1312.3
2017-May-18 13:28N 39°08' E 006°11'1712.5
2017-May-18 12:05N 39°03' E 006°33'212.4
2017-May-18 11:56N 39°03' E 006°35'812.5
2017-May-18 11:17N 39°01' E 006°45'512.5
2017-May-18 10:55N 38°59' E 006°51'812.2
2017-May-18 10:17N 38°57' E 007°01'812.1
2017-May-18 09:38N 38°55' E 007°10'211.9
2017-May-18 09:28N 38°54' E 007°13'611.9
2017-May-18 08:57N 38°53' E 007°20'1112.0
2017-May-18 08:04N 38°50' E 007°33'412.2
2017-May-18 07:47N 38°49' E 007°38'312.2
2017-May-18 07:30N 38°48' E 007°42'1112.0
2017-May-18 06:33N 38°45' E 007°56'111.9
2017-May-18 06:29N 38°45' E 007°57'612.0
2017-May-18 06:00N 38°43' E 008°04'612.1
2017-May-18 05:28N 38°41' E 008°12'612.1
2017-May-18 04:59N 38°40' E 008°19'812.1
2017-May-18 04:20N 38°38' E 008°29'512.2
2017-May-18 03:55N 38°36' E 008°35'512.3
2017-May-18 03:29N 38°35' E 008°42'612.3
2017-May-18 03:01N 38°33' E 008°49'1012.2
2017-May-18 02:14N 38°31' E 009°01'312.2
2017-May-18 02:00N 38°30' E 009°04'612.3
2017-May-18 01:30N 38°28' E 009°12'612.4
2017-May-18 01:00N 38°27' E 009°19'612.3
2017-May-18 00:30N 38°25' E 009°27'612.2
2017-May-17 23:59N 38°23' E 009°35'612.3
2017-May-17 23:30N 38°22' E 009°42'612.2
2017-May-17 23:00N 38°20' E 009°50'612.0
2017-May-17 22:29N 38°18' E 009°57'612.2
2017-May-17 22:01N 38°17' E 010°04'612.2
2017-May-17 21:30N 38°15' E 010°12'812.5
2017-May-17 20:54N 38°13' E 010°21'612.5
2017-May-17 20:28N 38°11' E 010°27'612.4
2017-May-17 19:58N 38°08' E 010°35'2312.0
2017-May-17 18:02N 37°59' E 011°01'011.5
2017-May-17 18:00N 37°58' E 011°02'1112.0
2017-May-17 17:03N 37°54' E 011°15'112.4
2017-May-17 17:00N 37°53' E 011°16'1312.0
2017-May-17 15:55N 37°48' E 011°31'711.8
2017-May-17 15:22N 37°45' E 011°38'512.5
2017-May-17 14:57N 37°43' E 011°44'1211.5
2017-May-17 13:55N 37°38' E 011°58'511.8
2017-May-17 13:30N 37°36' E 012°03'1511.4
2017-May-17 12:11N 37°30' E 012°20'211.2
2017-May-17 11:59N 37°28' E 012°23'711.1
2017-May-17 11:21N 37°25' E 012°30'6011.6
2017-May-17 06:10N 36°57' E 013°37'211.6
2017-May-17 06:00N 36°57' E 013°39'611.5
2017-May-17 05:30N 36°55' E 013°46'611.6
2017-May-17 05:00N 36°53' E 013°53'611.7
2017-May-17 04:27N 36°50' E 014°00'511.5
2017-May-17 04:00N 36°48' E 014°07'611.6
2017-May-17 03:30N 36°46' E 014°13'611.3
2017-May-17 03:00N 36°44' E 014°20'611.6
2017-May-17 02:30N 36°42' E 014°27'612.1
2017-May-17 02:00N 36°40' E 014°34'612.1
2017-May-17 01:30N 36°38' E 014°41'612.0
2017-May-17 00:58N 36°36' E 014°48'  

Dump ship's entire track history